createdAt,value
2018-07-15T00:00:15.674Z,60.11
2018-07-15T00:01:15.675Z,60.11
2018-07-15T00:02:15.682Z,60.11
2018-07-15T00:03:15.680Z,60.31
2018-07-15T00:04:15.671Z,60.11
2018-07-15T00:05:15.673Z,60.28
2018-07-15T00:06:15.680Z,60.69
2018-07-15T00:07:15.684Z,61.05
2018-07-15T00:08:15.676Z,60.96
2018-07-15T00:09:15.676Z,60.86
2018-07-15T00:10:15.683Z,60.76
2018-07-15T00:11:15.683Z,60.96
2018-07-15T00:12:15.676Z,61.34
2018-07-15T00:13:15.682Z,61.34
2018-07-15T00:14:15.675Z,61.63
2018-07-15T00:15:15.673Z,61.63
2018-07-15T00:16:15.670Z,61.54
2018-07-15T00:17:15.672Z,61.92
2018-07-15T00:18:15.667Z,62.31
2018-07-15T00:19:15.667Z,62.79
2018-07-15T00:20:15.736Z,62.21
2018-07-15T00:21:15.664Z,62.21
2018-07-15T00:22:15.689Z,62.40
2018-07-15T00:23:15.690Z,62.50
2018-07-15T00:24:15.685Z,62.31
2018-07-15T00:25:15.671Z,62.40
2018-07-15T00:26:15.666Z,62.57
2018-07-15T00:27:15.663Z,62.98
2018-07-15T00:28:15.661Z,62.98
2018-07-15T00:29:15.661Z,62.89
2018-07-15T00:30:15.660Z,63.34
2018-07-15T00:31:15.680Z,63.73
2018-07-15T00:32:15.664Z,63.66
2018-07-15T00:33:15.659Z,63.76
2018-07-15T00:34:15.668Z,62.89
2018-07-15T00:35:15.667Z,63.24
2018-07-15T00:36:15.661Z,63.28
2018-07-15T00:37:15.657Z,63.34
2018-07-15T00:38:15.657Z,62.98
2018-07-15T00:39:15.656Z,63.15
2018-07-15T00:40:15.654Z,63.15
2018-07-15T00:41:15.658Z,63.34
2018-07-15T00:42:15.688Z,63.63
2018-07-15T00:43:15.654Z,63.47
2018-07-15T00:44:15.670Z,63.82
2018-07-15T00:45:15.656Z,63.05
2018-07-15T00:46:15.652Z,63.34
2018-07-15T00:47:15.652Z,63.63
2018-07-15T00:48:15.651Z,63.24
2018-07-15T00:49:15.651Z,63.63
2018-07-15T00:50:15.655Z,63.73
2018-07-15T00:51:15.661Z,63.43
2018-07-15T00:52:15.656Z,63.63
2018-07-15T00:53:15.662Z,63.73
2018-07-15T00:54:15.648Z,63.53
2018-07-15T00:55:15.711Z,63.43
2018-07-15T00:56:15.646Z,62.86
2018-07-15T00:57:15.661Z,63.24
2018-07-15T00:58:15.649Z,62.18
2018-07-15T00:59:15.652Z,63.24
2018-07-15T01:00:15.644Z,63.24
2018-07-15T01:01:15.645Z,63.15
2018-07-15T01:02:15.651Z,63.24
2018-07-15T01:03:15.664Z,63.05
2018-07-15T01:04:15.673Z,63.15
2018-07-15T01:05:15.651Z,63.73
2018-07-15T01:06:15.643Z,63.24
2018-07-15T01:07:15.640Z,63.15
2018-07-15T01:08:15.647Z,63.43
2018-07-15T01:09:15.638Z,62.86
2018-07-15T01:10:15.648Z,63.15
2018-07-15T01:11:15.644Z,63.15
2018-07-15T01:12:15.636Z,63.73
2018-07-15T01:13:15.649Z,63.43
2018-07-15T01:14:15.636Z,63.05
2018-07-15T01:15:15.638Z,64.01
2018-07-15T01:16:15.634Z,62.95
2018-07-15T01:17:15.633Z,63.24
2018-07-15T01:18:15.641Z,62.95
2018-07-15T01:19:15.641Z,62.95
2018-07-15T01:20:15.631Z,63.63
2018-07-15T01:21:15.645Z,63.53
2018-07-15T01:22:15.631Z,63.73
2018-07-15T01:23:15.637Z,63.43
2018-07-15T01:24:15.634Z,63.43
2018-07-15T01:25:15.629Z,63.53
2018-07-15T01:26:15.626Z,63.15
2018-07-15T01:27:15.626Z,63.43
2018-07-15T01:28:15.622Z,63.63
2018-07-15T01:29:15.621Z,63.24
2018-07-15T01:30:15.637Z,63.43
2018-07-15T01:31:15.627Z,62.86
2018-07-15T01:32:15.628Z,63.43
2018-07-15T01:33:15.624Z,63.92
2018-07-15T01:34:15.619Z,63.43
2018-07-15T01:35:15.616Z,63.15
2018-07-15T01:36:15.627Z,63.63
2018-07-15T01:37:15.622Z,64.08
2018-07-15T01:38:15.616Z,65.14
2018-07-15T01:39:15.614Z,65.34
2018-07-15T01:40:15.612Z,65.91
2018-07-15T01:41:15.618Z,66.75
2018-07-15T01:42:15.615Z,66.97
2018-07-15T01:43:15.612Z,67.04
2018-07-15T01:44:15.611Z,68.01
2018-07-15T01:45:15.612Z,68.77
2018-07-15T01:46:15.605Z,68.68
2018-07-15T01:47:15.606Z,69.74
2018-07-15T01:48:15.609Z,69.26
2018-07-15T01:49:15.601Z,69.16
2018-07-15T01:50:15.613Z,69.45
2018-07-15T01:51:15.605Z,69.26
2018-07-15T01:52:15.612Z,69.16
2018-07-15T01:53:15.603Z,69.64
2018-07-15T01:54:15.594Z,70.42
2018-07-15T01:55:15.599Z,70.42
2018-07-15T01:56:15.591Z,70.13
2018-07-15T01:57:15.589Z,70.03
2018-07-15T01:58:15.586Z,71.28
2018-07-15T01:59:15.586Z,71.28
2018-07-15T02:00:15.582Z,71.77
2018-07-15T02:01:15.582Z,73.69
2018-07-15T02:02:15.589Z,72.60
2018-07-15T02:03:15.581Z,73.08
2018-07-15T02:04:15.579Z,73.95
2018-07-15T02:05:15.589Z,72.92
2018-07-15T02:06:15.579Z,72.79
2018-07-15T02:07:15.577Z,71.86
2018-07-15T02:08:15.577Z,72.50
2018-07-15T02:09:15.570Z,71.92
2018-07-15T02:10:15.566Z,72.41
2018-07-15T02:11:15.566Z,73.18
2018-07-15T02:12:15.572Z,74.05
2018-07-15T02:13:15.575Z,74.43
2018-07-15T02:14:15.565Z,75.68
2018-07-15T02:15:15.559Z,75.49
2018-07-15T02:16:15.558Z,75.65
2018-07-15T02:17:15.571Z,76.26
2018-07-15T02:18:15.555Z,75.78
2018-07-15T02:19:15.555Z,75.20
2018-07-15T02:20:15.557Z,75.78
2018-07-15T02:21:15.550Z,75.97
2018-07-15T02:22:15.549Z,75.59
2018-07-15T02:23:15.550Z,75.68
2018-07-15T02:24:15.550Z,75.01
2018-07-15T02:25:15.552Z,75.78
2018-07-15T02:26:15.549Z,76.17
2018-07-15T02:27:15.540Z,76.07
2018-07-15T02:28:15.538Z,76.55
2018-07-15T02:29:15.537Z,76.90
2018-07-15T02:30:15.553Z,77.28
2018-07-15T02:31:15.534Z,77.67
2018-07-15T02:32:15.536Z,78.73
2018-07-15T02:33:15.539Z,79.31
2018-07-15T02:34:15.537Z,79.69
2018-07-15T02:35:15.533Z,80.18
2018-07-15T02:36:15.526Z,80.27
2018-07-15T02:37:15.532Z,79.79
2018-07-15T02:38:15.530Z,77.96
2018-07-15T02:39:15.525Z,77.73
2018-07-15T02:40:15.527Z,78.98
2018-07-15T02:41:15.520Z,79.27
2018-07-15T02:42:15.600Z,78.21
2018-07-15T02:43:15.515Z,79.36
2018-07-15T02:44:15.509Z,78.79
2018-07-15T02:45:15.598Z,79.27
2018-07-15T02:46:15.603Z,79.89
2018-07-15T02:47:15.506Z,79.50
2018-07-15T02:48:15.509Z,80.08
2018-07-15T02:49:15.548Z,80.14
2018-07-15T02:50:15.517Z,80.52
2018-07-15T02:51:15.500Z,80.76
2018-07-15T02:52:15.569Z,81.04
2018-07-15T02:53:15.495Z,81.10
2018-07-15T02:54:15.494Z,80.66
2018-07-15T02:55:15.513Z,80.66
2018-07-15T02:56:15.489Z,80.85
2018-07-15T02:57:15.488Z,81.33
2018-07-15T02:58:15.488Z,81.58
2018-07-15T02:59:15.491Z,81.62
2018-07-15T03:00:15.491Z,81.81
2018-07-15T03:01:15.483Z,81.24
2018-07-15T03:02:15.546Z,81.72
2018-07-15T03:03:15.479Z,81.04
2018-07-15T03:04:15.475Z,80.46
2018-07-15T03:05:15.571Z,80.76
2018-07-15T03:06:15.484Z,81.43
2018-07-15T03:07:15.485Z,81.33
2018-07-15T03:08:15.565Z,81.81
2018-07-15T03:09:15.549Z,82.49
2018-07-15T03:10:15.467Z,82.01
2018-07-15T03:11:15.468Z,80.46
2018-07-15T03:12:15.505Z,81.14
2018-07-15T03:13:15.475Z,81.14
2018-07-15T03:14:15.468Z,80.85
2018-07-15T03:15:15.526Z,81.14
2018-07-15T03:16:15.456Z,81.04
2018-07-15T03:17:15.523Z,81.04
2018-07-15T03:18:15.527Z,81.43
2018-07-15T03:19:15.456Z,81.62
2018-07-15T03:20:15.453Z,81.87
2018-07-15T03:21:15.447Z,81.58
2018-07-15T03:22:15.446Z,81.91
2018-07-15T03:23:15.449Z,81.58
2018-07-15T03:24:15.442Z,82.45
2018-07-15T03:25:15.499Z,82.16
2018-07-15T03:26:15.445Z,82.39
2018-07-15T03:27:15.440Z,81.91
2018-07-15T03:28:15.522Z,81.58
2018-07-15T03:29:15.438Z,82.26
2018-07-15T03:30:15.442Z,81.96
2018-07-15T03:31:15.514Z,82.26
2018-07-15T03:32:15.510Z,82.26
2018-07-15T03:33:15.431Z,82.06
2018-07-15T03:34:15.596Z,82.16
2018-07-15T03:35:15.431Z,81.52
2018-07-15T03:36:15.427Z,81.77
2018-07-15T03:37:15.424Z,81.96
2018-07-15T03:38:15.497Z,82.06
2018-07-15T03:39:15.433Z,81.96
2018-07-15T03:40:15.421Z,81.87
2018-07-15T03:41:15.512Z,81.96
2018-07-15T03:42:15.417Z,82.54
2018-07-15T03:43:15.417Z,82.93
2018-07-15T03:44:15.502Z,82.83
2018-07-15T03:45:15.418Z,83.03
2018-07-15T03:46:15.408Z,83.41
2018-07-15T03:47:15.407Z,83.31
2018-07-15T03:48:15.407Z,83.61
2018-07-15T03:49:15.402Z,83.89
2018-07-15T03:50:15.401Z,84.18
2018-07-15T03:51:15.472Z,83.85
2018-07-15T03:52:15.396Z,84.38
2018-07-15T03:53:15.396Z,84.09
2018-07-15T03:54:15.474Z,84.09
2018-07-15T03:55:15.461Z,84.38
2018-07-15T03:56:15.390Z,83.99
2018-07-15T03:57:15.392Z,84.09
2018-07-15T03:58:15.400Z,85.14
2018-07-15T03:59:15.384Z,85.10
2018-07-15T04:00:15.390Z,84.91
2018-07-15T04:01:15.440Z,85.20
2018-07-15T04:02:15.382Z,85.49
2018-07-15T04:03:15.387Z,85.58
2018-07-15T04:04:15.382Z,86.07
2018-07-15T04:05:15.375Z,86.16
2018-07-15T04:06:15.375Z,85.78
2018-07-15T04:07:15.376Z,85.87
2018-07-15T04:08:15.374Z,86.26
2018-07-15T04:09:15.369Z,85.97
2018-07-15T04:10:15.370Z,86.07
2018-07-15T04:11:15.378Z,86.45
2018-07-15T04:12:15.371Z,86.55
2018-07-15T04:13:15.365Z,86.35
2018-07-15T04:14:15.372Z,85.78
2018-07-15T04:15:15.361Z,86.26
2018-07-15T04:16:15.355Z,86.16
2018-07-15T04:17:15.366Z,86.65
2018-07-15T04:18:15.354Z,86.83
2018-07-15T04:19:15.351Z,86.65
2018-07-15T04:20:15.346Z,87.03
2018-07-15T04:21:15.348Z,86.45
2018-07-15T04:22:15.349Z,86.07
2018-07-15T04:23:15.341Z,86.35
2018-07-15T04:24:15.337Z,86.35
2018-07-15T04:25:15.340Z,86.26
2018-07-15T04:26:15.339Z,85.78
2018-07-15T04:27:15.334Z,86.35
2018-07-15T04:28:15.370Z,85.87
2018-07-15T04:29:15.329Z,85.87
2018-07-15T04:30:15.335Z,85.87
2018-07-15T04:31:15.333Z,85.78
2018-07-15T04:32:15.327Z,85.78
2018-07-15T04:33:15.323Z,85.78
2018-07-15T04:34:15.320Z,85.91
2018-07-15T04:35:15.330Z,86.01
2018-07-15T04:36:15.315Z,86.01
2018-07-15T04:37:15.396Z,85.72
2018-07-15T04:38:15.321Z,85.43
2018-07-15T04:39:15.312Z,84.38
2018-07-15T04:40:15.313Z,83.41
2018-07-15T04:41:15.312Z,82.45
2018-07-15T04:42:15.306Z,82.78
2018-07-15T04:43:15.304Z,82.20
2018-07-15T04:44:15.310Z,81.33
2018-07-15T04:45:15.311Z,81.14
2018-07-15T04:46:15.298Z,81.14
2018-07-15T04:47:15.300Z,81.04
2018-07-15T04:48:15.294Z,81.24
2018-07-15T04:49:15.292Z,80.22
2018-07-15T04:50:15.294Z,77.75
2018-07-15T04:51:15.292Z,75.79
2018-07-15T04:52:15.289Z,72.97
2018-07-15T04:53:15.291Z,70.82
2018-07-15T04:54:15.287Z,68.33
2018-07-15T04:55:15.295Z,66.24
2018-07-15T04:56:15.293Z,64.92
2018-07-15T04:57:15.292Z,63.20
2018-07-15T04:58:15.290Z,61.10
2018-07-15T04:59:15.289Z,60.35
2018-07-15T05:00:15.287Z,59.03
2018-07-15T05:01:15.298Z,58.47
2018-07-15T05:02:15.290Z,57.11
2018-07-15T05:03:15.294Z,56.16
2018-07-15T05:04:15.290Z,55.71
2018-07-15T05:05:15.296Z,54.35
2018-07-15T05:06:15.373Z,53.11
2018-07-15T05:07:15.355Z,52.53
2018-07-15T05:08:15.303Z,53.40
2018-07-15T05:09:15.382Z,53.72
2018-07-15T05:10:15.320Z,53.72
2018-07-15T05:11:15.403Z,53.42
2018-07-15T05:12:15.328Z,52.75
2018-07-15T05:13:15.335Z,53.14
2018-07-15T05:14:15.329Z,52.75
2018-07-15T05:15:15.341Z,51.39
2018-07-15T05:16:15.361Z,51.21
2018-07-15T05:17:15.350Z,51.02
2018-07-15T05:18:15.348Z,50.73
2018-07-15T05:19:15.382Z,50.46
2018-07-15T05:20:15.364Z,50.46
2018-07-15T05:21:15.359Z,50.46
2018-07-15T05:22:15.394Z,50.82
2018-07-15T05:23:15.381Z,51.31
2018-07-15T05:24:15.371Z,51.02
2018-07-15T05:25:15.378Z,50.82
2018-07-15T05:26:15.387Z,51.94
2018-07-15T05:27:15.394Z,53.50
2018-07-15T05:28:15.390Z,53.47
2018-07-15T05:29:15.405Z,54.05
2018-07-15T05:30:15.403Z,54.22
2018-07-15T05:31:15.413Z,54.61
2018-07-15T05:32:15.408Z,54.90
2018-07-15T05:33:15.406Z,54.78
2018-07-15T05:34:15.478Z,55.17
2018-07-15T05:35:15.411Z,55.82
2018-07-15T05:36:15.414Z,56.40
2018-07-15T05:37:15.478Z,57.08
2018-07-15T05:38:15.420Z,56.89
2018-07-15T05:39:15.422Z,56.89
2018-07-15T05:40:15.433Z,57.86
2018-07-15T05:41:15.438Z,57.83
2018-07-15T05:42:15.435Z,57.93
2018-07-15T05:43:15.438Z,58.80
2018-07-15T05:44:15.480Z,59.16
2018-07-15T05:45:15.439Z,58.77
2018-07-15T05:46:15.447Z,58.48
2018-07-15T05:47:15.476Z,57.90
2018-07-15T05:48:15.459Z,57.70
2018-07-15T05:49:15.449Z,57.90
2018-07-15T05:50:15.489Z,57.87
2018-07-15T05:51:15.465Z,57.58
2018-07-15T05:52:15.463Z,57.97
2018-07-15T05:53:15.517Z,58.45
2018-07-15T05:54:15.461Z,57.78
2018-07-15T05:55:15.462Z,58.65
2018-07-15T05:56:15.461Z,58.74
2018-07-15T05:57:15.503Z,58.26
2018-07-15T05:58:15.465Z,59.03
2018-07-15T05:59:15.530Z,58.74
2018-07-15T06:00:15.476Z,58.74
2018-07-15T06:01:15.470Z,58.65
2018-07-15T06:02:15.476Z,58.45
2018-07-15T06:03:15.473Z,58.16
2018-07-15T06:04:15.483Z,58.45
2018-07-15T06:05:15.481Z,58.16
2018-07-15T06:06:15.487Z,58.06
2018-07-15T06:07:15.480Z,57.97
2018-07-15T06:08:15.482Z,58.06
2018-07-15T06:09:15.492Z,57.97
2018-07-15T06:10:15.486Z,57.58
2018-07-15T06:11:15.493Z,57.58
2018-07-15T06:12:15.492Z,57.58
2018-07-15T06:13:15.504Z,57.78
2018-07-15T06:14:15.495Z,57.19
2018-07-15T06:15:15.527Z,57.29
2018-07-15T06:16:15.499Z,57.09
2018-07-15T06:17:15.497Z,57.12
2018-07-15T06:18:15.559Z,56.41
2018-07-15T06:19:15.523Z,56.13
2018-07-15T06:20:15.502Z,56.54
2018-07-15T06:21:15.507Z,56.25
2018-07-15T06:22:15.541Z,56.90
2018-07-15T06:23:15.513Z,56.64
2018-07-15T06:24:15.509Z,57.03
2018-07-15T06:25:15.511Z,57.22
2018-07-15T06:26:15.525Z,56.93
2018-07-15T06:27:15.522Z,57.00
2018-07-15T06:28:15.553Z,57.22
2018-07-15T06:29:15.518Z,56.54
2018-07-15T06:30:15.518Z,57.22
2018-07-15T06:31:15.577Z,57.12
2018-07-15T06:32:15.525Z,56.64
2018-07-15T06:33:15.525Z,57.03
2018-07-15T06:34:15.571Z,56.25
2018-07-15T06:35:15.535Z,56.74
2018-07-15T06:36:15.536Z,56.64
2018-07-15T06:37:15.592Z,56.15
2018-07-15T06:38:15.533Z,56.45
2018-07-15T06:39:15.535Z,57.12
2018-07-15T06:40:15.540Z,57.06
2018-07-15T06:41:15.542Z,56.37
2018-07-15T06:42:15.547Z,56.28
2018-07-15T06:43:15.571Z,55.99
2018-07-15T06:44:15.570Z,56.28
2018-07-15T06:45:15.549Z,55.89
2018-07-15T06:46:15.557Z,55.89
2018-07-15T06:47:15.585Z,55.99
2018-07-15T06:48:15.551Z,55.89
2018-07-15T06:49:15.625Z,56.18
2018-07-15T06:50:15.605Z,55.69
2018-07-15T06:51:15.556Z,55.43
2018-07-15T06:52:15.558Z,55.24
2018-07-15T06:53:15.604Z,55.24
2018-07-15T06:54:15.562Z,55.33
2018-07-15T06:55:15.579Z,55.04
2018-07-15T06:56:15.625Z,55.24
2018-07-15T06:57:15.583Z,55.14
2018-07-15T06:58:15.573Z,55.14
2018-07-15T06:59:15.573Z,54.94
2018-07-15T07:00:15.593Z,54.56
2018-07-15T07:01:15.583Z,54.94
2018-07-15T07:02:15.587Z,54.94
2018-07-15T07:03:15.596Z,54.94
2018-07-15T07:04:15.596Z,54.66
2018-07-15T07:05:15.590Z,54.94
2018-07-15T07:06:15.622Z,54.07
2018-07-15T07:07:15.623Z,54.17
2018-07-15T07:08:15.605Z,54.49
2018-07-15T07:09:15.633Z,54.17
2018-07-15T07:10:15.601Z,54.29
2018-07-15T07:11:15.600Z,54.29
2018-07-15T07:12:15.633Z,53.32
2018-07-15T07:13:15.607Z,53.61
2018-07-15T07:14:15.649Z,53.52
2018-07-15T07:15:15.661Z,54.20
2018-07-15T07:16:15.618Z,53.22
2018-07-15T07:17:15.622Z,53.22
2018-07-15T07:18:15.615Z,53.32
2018-07-15T07:19:15.623Z,53.32
2018-07-15T07:20:15.619Z,53.54
2018-07-15T07:21:15.624Z,52.96
2018-07-15T07:22:15.631Z,51.89
2018-07-15T07:23:15.631Z,51.50
2018-07-15T07:24:15.633Z,51.89
2018-07-15T07:25:15.646Z,51.70
2018-07-15T07:26:15.654Z,51.89
2018-07-15T07:27:15.639Z,52.28
2018-07-15T07:28:15.676Z,51.70
2018-07-15T07:29:15.644Z,51.99
2018-07-15T07:30:15.648Z,51.79
2018-07-15T07:31:15.689Z,52.28
2018-07-15T07:32:15.652Z,52.57
2018-07-15T07:33:15.661Z,52.09
2018-07-15T07:34:15.685Z,52.76
2018-07-15T07:35:15.727Z,52.57
2018-07-15T07:36:15.662Z,51.79
2018-07-15T07:37:15.705Z,51.82
2018-07-15T07:38:15.698Z,51.43
2018-07-15T07:39:15.677Z,51.43
2018-07-15T07:40:15.680Z,51.92
2018-07-15T07:41:15.722Z,51.14
2018-07-15T07:42:15.693Z,51.23
2018-07-15T07:43:15.681Z,50.75
2018-07-15T07:44:15.689Z,51.04
2018-07-15T07:45:15.694Z,50.46
2018-07-15T07:46:15.692Z,50.56
2018-07-15T07:47:15.698Z,51.04
2018-07-15T07:48:15.696Z,50.97
2018-07-15T07:49:15.707Z,50.87
2018-07-15T07:50:15.711Z,50.87
2018-07-15T07:51:15.708Z,50.78
2018-07-15T07:52:15.708Z,50.29
2018-07-15T07:53:15.734Z,50.58
2018-07-15T07:54:15.731Z,50.09
2018-07-15T07:55:15.723Z,50.38
2018-07-15T07:56:15.769Z,50.68
2018-07-15T07:57:15.722Z,50.19
2018-07-15T07:58:15.732Z,50.09
2018-07-15T07:59:15.764Z,50.29
2018-07-15T08:00:15.741Z,49.61
2018-07-15T08:01:15.735Z,49.44
2018-07-15T08:02:15.783Z,49.34
2018-07-15T08:03:15.744Z,48.95
2018-07-15T08:04:15.745Z,48.66
2018-07-15T08:05:15.749Z,49.05
2018-07-15T08:06:15.752Z,48.46
2018-07-15T08:07:15.764Z,48.56
2018-07-15T08:08:15.758Z,48.75
2018-07-15T08:09:15.763Z,48.85
2018-07-15T08:10:15.767Z,48.85
2018-07-15T08:11:15.786Z,48.95
2018-07-15T08:12:15.774Z,48.07
2018-07-15T08:13:15.776Z,48.75
2018-07-15T08:14:15.792Z,49.63
2018-07-15T08:15:15.809Z,48.85
2018-07-15T08:16:15.787Z,48.66
2018-07-15T08:17:15.793Z,48.75
2018-07-15T08:18:15.811Z,47.69
2018-07-15T08:19:15.795Z,48.46
2018-07-15T08:20:15.800Z,49.05
2018-07-15T08:21:15.808Z,48.66
2018-07-15T08:22:15.815Z,48.75
2018-07-15T08:23:15.810Z,48.97
2018-07-15T08:24:15.821Z,48.19
2018-07-15T08:25:15.818Z,48.39
2018-07-15T08:26:15.821Z,47.80
2018-07-15T08:27:15.854Z,47.32
2018-07-15T08:28:15.923Z,47.63
2018-07-15T08:29:15.834Z,46.93
2018-07-15T08:30:15.872Z,46.54
2018-07-15T08:31:15.840Z,46.73
2018-07-15T08:32:15.851Z,46.73
2018-07-15T08:33:15.895Z,46.93
2018-07-15T08:34:15.857Z,46.93
2018-07-15T08:35:15.860Z,45.95
2018-07-15T08:36:15.859Z,46.25
2018-07-15T08:37:15.871Z,45.29
2018-07-15T08:38:15.865Z,45.59
2018-07-15T08:39:15.871Z,45.10
2018-07-15T08:40:15.873Z,45.37
2018-07-15T08:41:15.885Z,44.98
2018-07-15T08:42:15.885Z,44.98
2018-07-15T08:43:15.886Z,44.98
2018-07-15T08:44:15.889Z,44.49
2018-07-15T08:45:15.897Z,44.30
2018-07-15T08:46:15.895Z,43.91
2018-07-15T08:47:15.907Z,44.30
2018-07-15T08:48:15.903Z,43.71
2018-07-15T08:49:15.915Z,43.52
2018-07-15T08:50:15.911Z,42.74
2018-07-15T08:51:15.924Z,43.13
2018-07-15T08:52:15.972Z,43.62
2018-07-15T08:53:15.937Z,43.91
2018-07-15T08:54:15.928Z,43.93
2018-07-15T08:55:15.932Z,43.52
2018-07-15T08:56:15.938Z,43.74
2018-07-15T08:57:15.946Z,44.71
2018-07-15T08:58:15.945Z,44.03
2018-07-15T08:59:15.947Z,43.85
2018-07-15T09:00:15.951Z,44.44
2018-07-15T09:01:15.988Z,44.54
2018-07-15T09:02:15.958Z,44.34
2018-07-15T09:03:15.980Z,44.73
2018-07-15T09:04:15.969Z,43.59
2018-07-15T09:05:15.968Z,44.44
2018-07-15T09:06:15.988Z,43.47
2018-07-15T09:07:15.980Z,44.15
2018-07-15T09:08:15.990Z,44.27
2018-07-15T09:09:15.984Z,43.66
2018-07-15T09:10:16.002Z,43.98
2018-07-15T09:11:15.991Z,43.57
2018-07-15T09:12:15.996Z,44.07
2018-07-15T09:13:16.001Z,43.98
2018-07-15T09:14:16.013Z,43.78
2018-07-15T09:15:16.009Z,43.78
2018-07-15T09:16:16.044Z,43.10
2018-07-15T09:17:16.027Z,42.71
2018-07-15T09:18:16.029Z,43.00
2018-07-15T09:19:16.026Z,42.61
2018-07-15T09:20:16.030Z,43.00
2018-07-15T09:21:16.075Z,43.59
2018-07-15T09:22:16.040Z,42.90
2018-07-15T09:23:16.049Z,43.19
2018-07-15T09:24:16.049Z,43.00
2018-07-15T09:25:16.081Z,42.41
2018-07-15T09:26:16.058Z,42.71
2018-07-15T09:27:16.070Z,42.61
2018-07-15T09:28:16.066Z,43.08
2018-07-15T09:29:16.085Z,42.98
2018-07-15T09:30:16.075Z,43.66
2018-07-15T09:31:16.082Z,43.76
2018-07-15T09:32:16.111Z,43.76
2018-07-15T09:33:16.086Z,43.76
2018-07-15T09:34:16.091Z,43.68
2018-07-15T09:35:16.126Z,43.37
2018-07-15T09:36:16.107Z,44.44
2018-07-15T09:37:16.108Z,44.64
2018-07-15T09:38:16.108Z,44.54
2018-07-15T09:39:16.119Z,44.44
2018-07-15T09:40:16.117Z,44.44
2018-07-15T09:41:16.121Z,44.73
2018-07-15T09:42:16.126Z,44.64
2018-07-15T09:43:16.141Z,44.83
2018-07-15T09:44:16.132Z,44.83
2018-07-15T09:45:16.146Z,44.73
2018-07-15T09:46:16.151Z,43.78
2018-07-15T09:47:16.151Z,43.59
2018-07-15T09:48:16.158Z,44.46
2018-07-15T09:49:16.169Z,43.90
2018-07-15T09:50:16.169Z,42.24
2018-07-15T09:51:16.167Z,41.66
2018-07-15T09:52:16.168Z,41.95
2018-07-15T09:53:16.173Z,41.56
2018-07-15T09:54:16.200Z,41.46
2018-07-15T09:55:16.185Z,42.63
2018-07-15T09:56:16.195Z,41.93
2018-07-15T09:57:16.212Z,42.44
2018-07-15T09:58:16.250Z,41.66
2018-07-15T09:59:16.207Z,41.66
2018-07-15T10:00:16.229Z,41.46
2018-07-15T10:01:16.222Z,41.19
2018-07-15T10:02:16.215Z,40.60
2018-07-15T10:03:16.224Z,40.21
2018-07-15T10:04:16.228Z,39.72
2018-07-15T10:05:16.234Z,39.72
2018-07-15T10:06:16.246Z,40.31
2018-07-15T10:07:16.237Z,40.21
2018-07-15T10:08:16.244Z,39.33
2018-07-15T10:09:16.265Z,38.77
2018-07-15T10:10:16.251Z,38.57
2018-07-15T10:11:16.259Z,39.26
2018-07-15T10:12:16.258Z,38.57
2018-07-15T10:13:16.265Z,39.26
2018-07-15T10:14:16.270Z,40.14
2018-07-15T10:15:16.287Z,41.21
2018-07-15T10:16:16.286Z,40.72
2018-07-15T10:17:16.291Z,40.53
2018-07-15T10:18:16.303Z,40.33
2018-07-15T10:19:16.295Z,41.21
2018-07-15T10:20:16.306Z,40.63
2018-07-15T10:21:16.308Z,39.84
2018-07-15T10:22:16.316Z,38.96
2018-07-15T10:23:16.321Z,38.77
2018-07-15T10:24:16.318Z,39.36
2018-07-15T10:25:16.323Z,39.84
2018-07-15T10:26:16.328Z,40.14
2018-07-15T10:27:16.340Z,41.21
2018-07-15T10:28:16.335Z,40.92
2018-07-15T10:29:16.347Z,41.41
2018-07-15T10:30:16.345Z,41.50
2018-07-15T10:31:16.352Z,41.41
2018-07-15T10:32:16.359Z,41.21
2018-07-15T10:33:16.366Z,40.06
2018-07-15T10:34:16.376Z,40.25
2018-07-15T10:35:16.373Z,40.63
2018-07-15T10:36:16.374Z,41.03
2018-07-15T10:37:16.388Z,40.45
2018-07-15T10:38:16.405Z,40.55
2018-07-15T10:39:16.390Z,39.96
2018-07-15T10:40:16.402Z,40.16
2018-07-15T10:41:16.400Z,39.47
2018-07-15T10:42:16.409Z,38.87
2018-07-15T10:43:16.413Z,39.26
2018-07-15T10:44:16.427Z,39.45
2018-07-15T10:45:16.430Z,40.14
2018-07-15T10:46:16.428Z,40.43
2018-07-15T10:47:16.435Z,39.76
2018-07-15T10:48:16.439Z,40.84
2018-07-15T10:49:16.452Z,41.23
2018-07-15T10:50:16.451Z,40.06
2018-07-15T10:51:16.460Z,40.16
2018-07-15T10:52:16.466Z,40.74
2018-07-15T10:53:16.466Z,40.16
2018-07-15T10:54:16.473Z,39.67
2018-07-15T10:55:16.479Z,39.08
2018-07-15T10:56:16.484Z,39.18
2018-07-15T10:57:16.481Z,38.89
2018-07-15T10:58:16.489Z,38.59
2018-07-15T10:59:16.492Z,38.30
2018-07-15T11:00:16.499Z,37.63
2018-07-15T11:01:16.512Z,38.02
2018-07-15T11:02:16.517Z,38.32
2018-07-15T11:03:16.526Z,38.12
2018-07-15T11:04:16.522Z,38.32
2018-07-15T11:05:16.526Z,39.20
2018-07-15T11:06:16.568Z,39.39
2018-07-15T11:07:16.536Z,39.29
2018-07-15T11:08:16.541Z,39.29
2018-07-15T11:09:16.547Z,39.80
2018-07-15T11:10:16.603Z,39.49
2018-07-15T11:11:16.570Z,38.90
2018-07-15T11:12:16.566Z,38.90
2018-07-15T11:13:16.597Z,38.63
2018-07-15T11:14:16.590Z,38.82
2018-07-15T11:15:16.591Z,38.73
2018-07-15T11:16:16.592Z,39.00
2018-07-15T11:17:16.590Z,38.32
2018-07-15T11:18:16.599Z,38.24
2018-07-15T11:19:16.604Z,38.34
2018-07-15T11:20:16.605Z,38.43
2018-07-15T11:21:16.620Z,37.95
2018-07-15T11:22:16.625Z,36.77
2018-07-15T11:23:16.624Z,37.55
2018-07-15T11:24:16.628Z,37.45
2018-07-15T11:25:16.633Z,36.08
2018-07-15T11:26:16.649Z,36.79
2018-07-15T11:27:16.655Z,36.67
2018-07-15T11:28:16.661Z,35.69
2018-07-15T11:29:16.661Z,35.48
2018-07-15T11:30:16.669Z,35.21
2018-07-15T11:31:16.725Z,35.01
2018-07-15T11:32:16.684Z,34.52
2018-07-15T11:33:16.685Z,34.91
2018-07-15T11:34:16.693Z,35.22
2018-07-15T11:35:16.698Z,35.81
2018-07-15T11:36:16.698Z,36.10
2018-07-15T11:37:16.707Z,37.18
2018-07-15T11:38:16.713Z,36.59
2018-07-15T11:39:16.730Z,37.08
2018-07-15T11:40:16.729Z,36.20
2018-07-15T11:41:16.725Z,34.74
2018-07-15T11:42:16.733Z,34.94
2018-07-15T11:43:16.738Z,35.53
2018-07-15T11:44:16.743Z,32.70
2018-07-15T11:45:16.753Z,32.89
2018-07-15T11:46:16.776Z,34.54
2018-07-15T11:47:16.766Z,34.24
2018-07-15T11:48:16.792Z,34.93
2018-07-15T11:49:16.781Z,34.34
2018-07-15T11:50:16.779Z,34.64
2018-07-15T11:51:16.810Z,34.34
2018-07-15T11:52:16.793Z,34.44
2018-07-15T11:53:16.803Z,33.46
2018-07-15T11:54:16.807Z,33.46
2018-07-15T11:55:16.815Z,34.14
2018-07-15T11:56:16.813Z,34.54
2018-07-15T11:57:16.824Z,35.24
2018-07-15T11:58:16.834Z,35.24
2018-07-15T11:59:16.839Z,35.24
2018-07-15T12:00:16.843Z,35.04
2018-07-15T12:01:16.853Z,34.45
2018-07-15T12:02:16.851Z,34.65
2018-07-15T12:03:16.864Z,34.06
2018-07-15T12:04:16.861Z,34.38
2018-07-15T12:05:16.868Z,34.67
2018-07-15T12:06:16.891Z,34.38
2018-07-15T12:07:16.882Z,32.71
2018-07-15T12:08:16.885Z,32.20
2018-07-15T12:09:16.892Z,32.01
2018-07-15T12:10:16.902Z,32.30
2018-07-15T12:11:16.906Z,32.51
2018-07-15T12:12:16.915Z,33.00
2018-07-15T12:13:16.917Z,33.10
2018-07-15T12:14:16.924Z,32.42
2018-07-15T12:15:16.942Z,31.83
2018-07-15T12:16:16.935Z,31.63
2018-07-15T12:17:16.943Z,30.75
2018-07-15T12:18:16.954Z,28.50
2018-07-15T12:19:16.957Z,28.20
2018-07-15T12:20:16.962Z,28.91
2018-07-15T12:21:16.966Z,29.00
2018-07-15T12:22:16.990Z,29.69
2018-07-15T12:23:16.988Z,28.71
2018-07-15T12:24:16.987Z,29.88
2018-07-15T12:25:16.991Z,29.69
2018-07-15T12:26:17.004Z,28.71
2018-07-15T12:27:17.004Z,28.30
2018-07-15T12:28:17.105Z,28.99
2018-07-15T12:29:17.023Z,29.28
2018-07-15T12:30:17.032Z,29.68
2018-07-15T12:31:17.029Z,29.95
2018-07-15T12:32:17.047Z,31.24
2018-07-15T12:33:17.042Z,30.46
2018-07-15T12:34:17.061Z,28.79
2018-07-15T12:35:17.061Z,29.08
2018-07-15T12:36:17.061Z,29.18
2018-07-15T12:37:17.072Z,29.69
2018-07-15T12:38:17.076Z,30.07
2018-07-15T12:39:17.086Z,30.16
2018-07-15T12:40:17.086Z,29.69
2018-07-15T12:41:17.096Z,27.53
2018-07-15T12:42:17.101Z,28.00
2018-07-15T12:43:17.121Z,30.04
2018-07-15T12:44:17.122Z,29.27
2018-07-15T12:45:17.123Z,29.25
2018-07-15T12:46:17.136Z,29.74
2018-07-15T12:47:17.139Z,29.44
2018-07-15T12:48:17.137Z,30.49
2018-07-15T12:49:17.150Z,30.59
2018-07-15T12:50:17.153Z,31.78
2018-07-15T12:51:17.159Z,30.80
2018-07-15T12:52:17.162Z,30.32